sensor_id;sensor_type;location;lat;lon;timestamp;P1;durP1;ratioP1;P2;durP2;ratioP2
43114;SDS011;28727;50.068;14.452;2022-12-18T00:00:28;82.60;;;34.78;;
43114;SDS011;28727;50.068;14.452;2022-12-18T00:03:00;77.45;;;32.92;;
43114;SDS011;28727;50.068;14.452;2022-12-18T00:05:32;77.20;;;33.00;;
43114;SDS011;28727;50.068;14.452;2022-12-18T00:08:03;85.63;;;36.60;;
43114;SDS011;28727;50.068;14.452;2022-12-18T00:10:39;86.50;;;35.40;;
43114;SDS011;28727;50.068;14.452;2022-12-18T00:13:11;78.10;;;34.53;;
43114;SDS011;28727;50.068;14.452;2022-12-18T00:15:43;84.85;;;34.80;;
43114;SDS011;28727;50.068;14.452;2022-12-18T00:18:15;80.88;;;35.53;;
43114;SDS011;28727;50.068;14.452;2022-12-18T00:20:50;82.95;;;37.78;;
43114;SDS011;28727;50.068;14.452;2022-12-18T00:23:22;77.80;;;34.67;;
43114;SDS011;28727;50.068;14.452;2022-12-18T00:25:54;92.95;;;37.60;;
43114;SDS011;28727;50.068;14.452;2022-12-18T00:28:26;89.83;;;38.07;;
43114;SDS011;28727;50.068;14.452;2022-12-18T00:31:01;89.60;;;36.47;;
43114;SDS011;28727;50.068;14.452;2022-12-18T00:33:41;87.63;;;35.42;;
43114;SDS011;28727;50.068;14.452;2022-12-18T00:36:17;86.20;;;36.10;;
43114;SDS011;28727;50.068;14.452;2022-12-18T00:38:52;89.35;;;36.92;;
43114;SDS011;28727;50.068;14.452;2022-12-18T00:41:25;69.93;;;29.80;;
43114;SDS011;28727;50.068;14.452;2022-12-18T00:44:17;91.47;;;36.53;;
43114;SDS011;28727;50.068;14.452;2022-12-18T00:46:49;83.22;;;35.33;;
43114;SDS011;28727;50.068;14.452;2022-12-18T00:49:21;89.63;;;36.08;;
43114;SDS011;28727;50.068;14.452;2022-12-18T00:51:53;89.15;;;36.97;;
43114;SDS011;28727;50.068;14.452;2022-12-18T00:54:25;82.73;;;34.20;;
43114;SDS011;28727;50.068;14.452;2022-12-18T00:56:56;82.13;;;35.37;;
43114;SDS011;28727;50.068;14.452;2022-12-18T00:59:28;89.50;;;35.22;;
43114;SDS011;28727;50.068;14.452;2022-12-18T01:02:01;86.43;;;38.03;;
43114;SDS011;28727;50.068;14.452;2022-12-18T01:04:33;84.75;;;34.45;;
43114;SDS011;28727;50.068;14.452;2022-12-18T01:07:05;82.15;;;34.10;;
43114;SDS011;28727;50.068;14.452;2022-12-18T01:09:40;86.28;;;35.60;;
43114;SDS011;28727;50.068;14.452;2022-12-18T01:12:11;80.07;;;34.08;;
43114;SDS011;28727;50.068;14.452;2022-12-18T01:14:43;87.47;;;33.92;;
43114;SDS011;28727;50.068;14.452;2022-12-18T01:17:15;88.50;;;35.28;;
43114;SDS011;28727;50.068;14.452;2022-12-18T01:19:46;85.10;;;34.97;;
43114;SDS011;28727;50.068;14.452;2022-12-18T01:22:18;81.63;;;32.92;;
43114;SDS011;28727;50.068;14.452;2022-12-18T01:24:49;88.80;;;35.28;;
43114;SDS011;28727;50.068;14.452;2022-12-18T01:27:21;89.63;;;35.38;;
43114;SDS011;28727;50.068;14.452;2022-12-18T01:29:55;87.18;;;34.95;;
43114;SDS011;28727;50.068;14.452;2022-12-18T01:32:29;81.25;;;33.45;;
43114;SDS011;28727;50.068;14.452;2022-12-18T01:37:33;92.75;;;34.67;;
43114;SDS011;28727;50.068;14.452;2022-12-18T01:40:05;85.72;;;33.72;;
43114;SDS011;28727;50.068;14.452;2022-12-18T01:42:37;88.38;;;34.88;;
43114;SDS011;28727;50.068;14.452;2022-12-18T01:47:48;85.43;;;35.97;;
43114;SDS011;28727;50.068;14.452;2022-12-18T01:50:36;96.50;;;34.72;;
43114;SDS011;28727;50.068;14.452;2022-12-18T01:53:18;93.30;;;34.80;;
43114;SDS011;28727;50.068;14.452;2022-12-18T01:55:53;95.55;;;35.80;;
43114;SDS011;28727;50.068;14.452;2022-12-18T01:58:32;91.82;;;36.85;;
43114;SDS011;28727;50.068;14.452;2022-12-18T02:01:11;94.28;;;36.78;;
43114;SDS011;28727;50.068;14.452;2022-12-18T02:03:44;88.40;;;35.70;;
43114;SDS011;28727;50.068;14.452;2022-12-18T02:06:18;91.32;;;37.13;;
43114;SDS011;28727;50.068;14.452;2022-12-18T02:12:11;90.35;;;34.28;;
43114;SDS011;28727;50.068;14.452;2022-12-18T02:17:36;96.25;;;36.00;;
43114;SDS011;28727;50.068;14.452;2022-12-18T02:26:13;95.90;;;36.83;;
43114;SDS011;28727;50.068;14.452;2022-12-18T02:29:00;102.07;;;37.00;;
43114;SDS011;28727;50.068;14.452;2022-12-18T02:31:43;102.43;;;38.50;;
43114;SDS011;28727;50.068;14.452;2022-12-18T02:34:22;98.82;;;37.25;;
43114;SDS011;28727;50.068;14.452;2022-12-18T02:37:00;108.25;;;39.17;;
43114;SDS011;28727;50.068;14.452;2022-12-18T02:39:37;106.90;;;40.13;;
43114;SDS011;28727;50.068;14.452;2022-12-18T02:42:15;107.57;;;37.35;;
43114;SDS011;28727;50.068;14.452;2022-12-18T02:44:49;103.35;;;39.10;;
43114;SDS011;28727;50.068;14.452;2022-12-18T02:47:28;92.95;;;36.13;;
43114;SDS011;28727;50.068;14.452;2022-12-18T02:50:07;98.85;;;37.83;;
43114;SDS011;28727;50.068;14.452;2022-12-18T02:55:59;96.93;;;37.30;;
43114;SDS011;28727;50.068;14.452;2022-12-18T03:04:29;99.07;;;39.15;;
43114;SDS011;28727;50.068;14.452;2022-12-18T03:07:09;108.15;;;37.38;;
43114;SDS011;28727;50.068;14.452;2022-12-18T03:09:48;104.90;;;38.75;;
43114;SDS011;28727;50.068;14.452;2022-12-18T03:12:35;104.70;;;38.15;;
43114;SDS011;28727;50.068;14.452;2022-12-18T03:15:14;111.82;;;38.42;;
43114;SDS011;28727;50.068;14.452;2022-12-18T03:18:11;101.50;;;38.30;;
43114;SDS011;28727;50.068;14.452;2022-12-18T03:20:47;103.63;;;38.35;;
43114;SDS011;28727;50.068;14.452;2022-12-18T03:23:25;105.78;;;37.67;;
43114;SDS011;28727;50.068;14.452;2022-12-18T03:26:05;114.05;;;39.05;;
43114;SDS011;28727;50.068;14.452;2022-12-18T03:28:44;109.32;;;40.35;;
43114;SDS011;28727;50.068;14.452;2022-12-18T03:31:22;112.68;;;41.25;;
43114;SDS011;28727;50.068;14.452;2022-12-18T03:33:58;105.20;;;37.20;;
43114;SDS011;28727;50.068;14.452;2022-12-18T03:36:42;77.03;;;29.95;;
43114;SDS011;28727;50.068;14.452;2022-12-18T03:39:16;95.45;;;35.67;;
43114;SDS011;28727;50.068;14.452;2022-12-18T03:48:11;89.75;;;34.15;;
43114;SDS011;28727;50.068;14.452;2022-12-18T03:53:43;91.60;;;35.88;;
43114;SDS011;28727;50.068;14.452;2022-12-18T03:56:32;93.20;;;34.40;;
43114;SDS011;28727;50.068;14.452;2022-12-18T03:59:08;94.25;;;35.40;;
43114;SDS011;28727;50.068;14.452;2022-12-18T04:01:47;94.13;;;35.08;;
43114;SDS011;28727;50.068;14.452;2022-12-18T04:04:23;85.57;;;34.55;;
43114;SDS011;28727;50.068;14.452;2022-12-18T04:06:59;83.88;;;33.00;;
43114;SDS011;28727;50.068;14.452;2022-12-18T04:09:32;81.65;;;33.05;;
43114;SDS011;28727;50.068;14.452;2022-12-18T04:12:10;91.22;;;34.35;;
43114;SDS011;28727;50.068;14.452;2022-12-18T04:14:41;82.82;;;34.00;;
43114;SDS011;28727;50.068;14.452;2022-12-18T04:17:13;91.65;;;33.15;;
43114;SDS011;28727;50.068;14.452;2022-12-18T04:19:45;77.10;;;33.35;;
43114;SDS011;28727;50.068;14.452;2022-12-18T04:22:17;78.30;;;30.77;;
43114;SDS011;28727;50.068;14.452;2022-12-18T04:24:54;80.05;;;30.10;;
43114;SDS011;28727;50.068;14.452;2022-12-18T04:27:33;67.95;;;29.20;;
43114;SDS011;28727;50.068;14.452;2022-12-18T04:30:08;71.30;;;27.98;;
43114;SDS011;28727;50.068;14.452;2022-12-18T04:32:40;73.88;;;28.38;;
43114;SDS011;28727;50.068;14.452;2022-12-18T04:35:18;72.05;;;27.88;;
43114;SDS011;28727;50.068;14.452;2022-12-18T04:37:50;70.57;;;28.25;;
43114;SDS011;28727;50.068;14.452;2022-12-18T04:40:22;68.68;;;27.77;;
43114;SDS011;28727;50.068;14.452;2022-12-18T04:42:54;63.83;;;27.67;;
43114;SDS011;28727;50.068;14.452;2022-12-18T04:45:26;70.88;;;28.70;;
43114;SDS011;28727;50.068;14.452;2022-12-18T04:47:58;65.75;;;27.02;;
43114;SDS011;28727;50.068;14.452;2022-12-18T04:50:31;69.90;;;26.10;;
43114;SDS011;28727;50.068;14.452;2022-12-18T04:53:02;63.25;;;26.92;;
43114;SDS011;28727;50.068;14.452;2022-12-18T04:55:34;62.95;;;24.77;;
43114;SDS011;28727;50.068;14.452;2022-12-18T04:58:06;69.25;;;26.38;;
43114;SDS011;28727;50.068;14.452;2022-12-18T05:00:37;74.07;;;26.83;;
43114;SDS011;28727;50.068;14.452;2022-12-18T05:03:09;71.50;;;25.40;;
43114;SDS011;28727;50.068;14.452;2022-12-18T05:05:40;58.35;;;23.17;;
43114;SDS011;28727;50.068;14.452;2022-12-18T05:08:12;59.70;;;24.42;;
43114;SDS011;28727;50.068;14.452;2022-12-18T05:10:44;62.15;;;23.45;;
43114;SDS011;28727;50.068;14.452;2022-12-18T05:13:16;63.45;;;24.83;;
43114;SDS011;28727;50.068;14.452;2022-12-18T05:15:51;64.38;;;24.58;;
43114;SDS011;28727;50.068;14.452;2022-12-18T05:18:24;64.72;;;23.90;;
43114;SDS011;28727;50.068;14.452;2022-12-18T05:20:56;59.85;;;23.33;;
43114;SDS011;28727;50.068;14.452;2022-12-18T05:23:27;56.60;;;22.88;;
43114;SDS011;28727;50.068;14.452;2022-12-18T05:26:00;57.42;;;23.45;;
43114;SDS011;28727;50.068;14.452;2022-12-18T05:28:33;60.25;;;22.40;;
43114;SDS011;28727;50.068;14.452;2022-12-18T05:31:06;55.60;;;22.02;;
43114;SDS011;28727;50.068;14.452;2022-12-18T05:33:39;54.20;;;21.70;;
43114;SDS011;28727;50.068;14.452;2022-12-18T05:36:11;67.78;;;24.30;;
43114;SDS011;28727;50.068;14.452;2022-12-18T05:38:42;55.78;;;22.70;;
43114;SDS011;28727;50.068;14.452;2022-12-18T05:41:14;60.35;;;22.13;;
43114;SDS011;28727;50.068;14.452;2022-12-18T05:43:46;56.70;;;22.45;;
43114;SDS011;28727;50.068;14.452;2022-12-18T05:46:18;61.83;;;22.60;;
43114;SDS011;28727;50.068;14.452;2022-12-18T05:48:50;56.20;;;21.95;;
43114;SDS011;28727;50.068;14.452;2022-12-18T05:51:22;55.85;;;22.23;;
43114;SDS011;28727;50.068;14.452;2022-12-18T05:53:53;54.70;;;23.40;;
43114;SDS011;28727;50.068;14.452;2022-12-18T05:56:25;48.67;;;21.13;;
43114;SDS011;28727;50.068;14.452;2022-12-18T05:58:57;45.75;;;19.35;;
43114;SDS011;28727;50.068;14.452;2022-12-18T06:01:29;64.30;;;21.85;;
43114;SDS011;28727;50.068;14.452;2022-12-18T06:04:01;59.85;;;23.13;;
43114;SDS011;28727;50.068;14.452;2022-12-18T06:06:33;61.65;;;22.70;;
43114;SDS011;28727;50.068;14.452;2022-12-18T06:09:05;57.10;;;23.88;;
43114;SDS011;28727;50.068;14.452;2022-12-18T06:11:40;53.05;;;21.23;;
43114;SDS011;28727;50.068;14.452;2022-12-18T06:14:12;59.33;;;21.73;;
43114;SDS011;28727;50.068;14.452;2022-12-18T06:16:44;56.50;;;21.95;;
43114;SDS011;28727;50.068;14.452;2022-12-18T06:19:15;56.47;;;20.77;;
43114;SDS011;28727;50.068;14.452;2022-12-18T06:21:48;45.47;;;18.90;;
43114;SDS011;28727;50.068;14.452;2022-12-18T06:24:20;50.45;;;18.05;;
43114;SDS011;28727;50.068;14.452;2022-12-18T06:26:52;50.70;;;18.27;;
43114;SDS011;28727;50.068;14.452;2022-12-18T06:29:23;53.88;;;20.13;;
43114;SDS011;28727;50.068;14.452;2022-12-18T06:31:55;44.38;;;17.83;;
43114;SDS011;28727;50.068;14.452;2022-12-18T06:34:26;50.15;;;19.95;;
43114;SDS011;28727;50.068;14.452;2022-12-18T06:36:58;60.28;;;20.35;;
43114;SDS011;28727;50.068;14.452;2022-12-18T06:39:30;54.53;;;19.52;;
43114;SDS011;28727;50.068;14.452;2022-12-18T06:42:02;59.20;;;20.50;;
43114;SDS011;28727;50.068;14.452;2022-12-18T06:44:34;56.70;;;20.10;;
43114;SDS011;28727;50.068;14.452;2022-12-18T06:47:10;60.45;;;20.23;;
43114;SDS011;28727;50.068;14.452;2022-12-18T06:49:41;52.55;;;20.38;;
43114;SDS011;28727;50.068;14.452;2022-12-18T06:52:15;61.05;;;21.33;;
43114;SDS011;28727;50.068;14.452;2022-12-18T06:54:46;54.05;;;18.20;;
43114;SDS011;28727;50.068;14.452;2022-12-18T06:57:18;65.95;;;19.38;;
43114;SDS011;28727;50.068;14.452;2022-12-18T06:59:50;56.85;;;20.17;;
43114;SDS011;28727;50.068;14.452;2022-12-18T07:02:21;72.53;;;21.63;;
43114;SDS011;28727;50.068;14.452;2022-12-18T07:04:53;60.53;;;19.27;;
43114;SDS011;28727;50.068;14.452;2022-12-18T07:07:24;55.80;;;19.30;;
43114;SDS011;28727;50.068;14.452;2022-12-18T07:09:56;57.63;;;17.48;;
43114;SDS011;28727;50.068;14.452;2022-12-18T07:12:28;54.97;;;18.63;;
43114;SDS011;28727;50.068;14.452;2022-12-18T07:14:59;50.08;;;16.35;;
43114;SDS011;28727;50.068;14.452;2022-12-18T07:17:31;43.60;;;17.60;;
43114;SDS011;28727;50.068;14.452;2022-12-18T07:20:02;42.13;;;15.70;;
43114;SDS011;28727;50.068;14.452;2022-12-18T07:22:34;39.63;;;12.57;;
43114;SDS011;28727;50.068;14.452;2022-12-18T07:25:06;47.17;;;15.25;;
43114;SDS011;28727;50.068;14.452;2022-12-18T07:27:38;44.35;;;14.13;;
43114;SDS011;28727;50.068;14.452;2022-12-18T07:30:10;43.78;;;14.27;;
43114;SDS011;28727;50.068;14.452;2022-12-18T07:32:45;50.15;;;15.40;;
43114;SDS011;28727;50.068;14.452;2022-12-18T07:35:17;46.90;;;15.50;;
43114;SDS011;28727;50.068;14.452;2022-12-18T07:37:55;36.38;;;12.88;;
43114;SDS011;28727;50.068;14.452;2022-12-18T07:40:26;45.45;;;14.68;;
43114;SDS011;28727;50.068;14.452;2022-12-18T07:42:58;44.67;;;13.98;;
43114;SDS011;28727;50.068;14.452;2022-12-18T07:45:29;41.13;;;13.88;;
43114;SDS011;28727;50.068;14.452;2022-12-18T07:50:36;39.00;;;11.52;;
43114;SDS011;28727;50.068;14.452;2022-12-18T07:53:11;38.63;;;11.95;;
43114;SDS011;28727;50.068;14.452;2022-12-18T07:55:43;42.10;;;13.20;;
43114;SDS011;28727;50.068;14.452;2022-12-18T07:58:35;40.55;;;11.95;;
43114;SDS011;28727;50.068;14.452;2022-12-18T08:01:09;41.97;;;13.00;;
43114;SDS011;28727;50.068;14.452;2022-12-18T08:03:43;46.60;;;14.57;;
43114;SDS011;28727;50.068;14.452;2022-12-18T08:06:14;53.17;;;17.73;;
43114;SDS011;28727;50.068;14.452;2022-12-18T08:08:50;53.03;;;16.55;;
43114;SDS011;28727;50.068;14.452;2022-12-18T08:11:25;54.78;;;16.25;;
43114;SDS011;28727;50.068;14.452;2022-12-18T08:13:58;54.88;;;16.80;;
43114;SDS011;28727;50.068;14.452;2022-12-18T08:16:30;51.78;;;16.35;;
43114;SDS011;28727;50.068;14.452;2022-12-18T08:19:01;46.15;;;15.38;;
43114;SDS011;28727;50.068;14.452;2022-12-18T08:21:34;43.75;;;15.93;;
43114;SDS011;28727;50.068;14.452;2022-12-18T08:24:05;47.58;;;15.20;;
43114;SDS011;28727;50.068;14.452;2022-12-18T08:26:37;37.00;;;14.38;;
43114;SDS011;28727;50.068;14.452;2022-12-18T08:29:09;39.65;;;14.48;;
43114;SDS011;28727;50.068;14.452;2022-12-18T08:31:41;37.47;;;13.63;;
43114;SDS011;28727;50.068;14.452;2022-12-18T08:34:16;36.83;;;14.55;;
43114;SDS011;28727;50.068;14.452;2022-12-18T08:36:51;35.50;;;14.25;;
43114;SDS011;28727;50.068;14.452;2022-12-18T08:39:23;35.97;;;13.80;;
43114;SDS011;28727;50.068;14.452;2022-12-18T08:41:55;41.92;;;14.32;;
43114;SDS011;28727;50.068;14.452;2022-12-18T08:44:45;41.28;;;12.80;;
43114;SDS011;28727;50.068;14.452;2022-12-18T08:47:16;41.35;;;13.35;;
43114;SDS011;28727;50.068;14.452;2022-12-18T08:49:53;39.92;;;12.63;;
43114;SDS011;28727;50.068;14.452;2022-12-18T08:52:25;39.05;;;12.98;;
43114;SDS011;28727;50.068;14.452;2022-12-18T08:54:56;43.80;;;13.98;;
43114;SDS011;28727;50.068;14.452;2022-12-18T08:57:28;44.30;;;14.77;;
43114;SDS011;28727;50.068;14.452;2022-12-18T08:59:59;45.45;;;14.25;;
43114;SDS011;28727;50.068;14.452;2022-12-18T09:02:31;37.53;;;13.32;;
43114;SDS011;28727;50.068;14.452;2022-12-18T09:07:38;39.25;;;12.25;;
43114;SDS011;28727;50.068;14.452;2022-12-18T09:10:09;32.63;;;12.40;;
43114;SDS011;28727;50.068;14.452;2022-12-18T09:12:41;39.45;;;14.77;;
43114;SDS011;28727;50.068;14.452;2022-12-18T09:15:13;38.13;;;13.52;;
43114;SDS011;28727;50.068;14.452;2022-12-18T09:17:44;36.65;;;13.40;;
43114;SDS011;28727;50.068;14.452;2022-12-18T09:20:16;36.63;;;12.85;;
43114;SDS011;28727;50.068;14.452;2022-12-18T09:22:48;35.00;;;14.05;;
43114;SDS011;28727;50.068;14.452;2022-12-18T09:25:20;35.50;;;13.27;;
43114;SDS011;28727;50.068;14.452;2022-12-18T09:27:52;33.25;;;12.10;;
43114;SDS011;28727;50.068;14.452;2022-12-18T09:30:24;37.22;;;12.75;;
43114;SDS011;28727;50.068;14.452;2022-12-18T09:32:55;27.17;;;9.55;;
43114;SDS011;28727;50.068;14.452;2022-12-18T09:35:27;29.83;;;12.30;;
43114;SDS011;28727;50.068;14.452;2022-12-18T09:37:59;35.25;;;12.98;;
43114;SDS011;28727;50.068;14.452;2022-12-18T09:40:34;31.27;;;11.52;;
43114;SDS011;28727;50.068;14.452;2022-12-18T09:43:11;32.15;;;10.85;;
43114;SDS011;28727;50.068;14.452;2022-12-18T09:45:55;33.70;;;12.75;;
43114;SDS011;28727;50.068;14.452;2022-12-18T09:48:37;34.45;;;12.95;;
43114;SDS011;28727;50.068;14.452;2022-12-18T09:51:14;32.67;;;12.43;;
43114;SDS011;28727;50.068;14.452;2022-12-18T09:53:52;29.73;;;9.98;;
43114;SDS011;28727;50.068;14.452;2022-12-18T09:56:29;37.10;;;12.70;;
43114;SDS011;28727;50.068;14.452;2022-12-18T09:59:09;33.72;;;12.48;;
43114;SDS011;28727;50.068;14.452;2022-12-18T10:01:52;37.47;;;13.02;;
43114;SDS011;28727;50.068;14.452;2022-12-18T10:04:24;33.22;;;12.77;;
43114;SDS011;28727;50.068;14.452;2022-12-18T10:07:17;41.08;;;13.48;;
43114;SDS011;28727;50.068;14.452;2022-12-18T10:13:11;36.53;;;13.00;;
43114;SDS011;28727;50.068;14.452;2022-12-18T10:16:19;34.80;;;13.77;;
43114;SDS011;28727;50.068;14.452;2022-12-18T10:24:39;40.72;;;13.63;;
43114;SDS011;28727;50.068;14.452;2022-12-18T10:27:24;32.05;;;12.25;;
43114;SDS011;28727;50.068;14.452;2022-12-18T10:32:30;34.78;;;12.65;;
43114;SDS011;28727;50.068;14.452;2022-12-18T10:35:02;32.95;;;13.35;;
43114;SDS011;28727;50.068;14.452;2022-12-18T10:37:34;36.92;;;13.82;;
43114;SDS011;28727;50.068;14.452;2022-12-18T10:40:07;32.95;;;12.60;;
43114;SDS011;28727;50.068;14.452;2022-12-18T10:42:40;41.05;;;14.85;;
43114;SDS011;28727;50.068;14.452;2022-12-18T10:45:15;36.05;;;14.13;;
43114;SDS011;28727;50.068;14.452;2022-12-18T10:47:49;38.03;;;14.18;;
43114;SDS011;28727;50.068;14.452;2022-12-18T10:50:32;33.35;;;11.60;;
43114;SDS011;28727;50.068;14.452;2022-12-18T10:53:28;33.65;;;11.55;;
43114;SDS011;28727;50.068;14.452;2022-12-18T10:56:03;29.80;;;12.15;;
43114;SDS011;28727;50.068;14.452;2022-12-18T10:58:40;32.38;;;12.05;;
43114;SDS011;28727;50.068;14.452;2022-12-18T11:01:14;37.00;;;12.88;;
43114;SDS011;28727;50.068;14.452;2022-12-18T11:06:22;37.08;;;12.27;;
43114;SDS011;28727;50.068;14.452;2022-12-18T11:09:00;29.35;;;12.05;;
43114;SDS011;28727;50.068;14.452;2022-12-18T11:11:47;30.13;;;11.52;;
43114;SDS011;28727;50.068;14.452;2022-12-18T11:14:25;36.13;;;14.50;;
43114;SDS011;28727;50.068;14.452;2022-12-18T11:16:57;36.08;;;13.82;;
43114;SDS011;28727;50.068;14.452;2022-12-18T11:19:58;33.97;;;13.70;;
43114;SDS011;28727;50.068;14.452;2022-12-18T11:22:32;30.55;;;12.40;;
43114;SDS011;28727;50.068;14.452;2022-12-18T11:28:27;37.20;;;14.88;;
43114;SDS011;28727;50.068;14.452;2022-12-18T11:33:58;43.22;;;15.00;;
43114;SDS011;28727;50.068;14.452;2022-12-18T11:36:54;37.53;;;14.32;;
43114;SDS011;28727;50.068;14.452;2022-12-18T11:39:36;34.13;;;15.30;;
43114;SDS011;28727;50.068;14.452;2022-12-18T11:42:36;38.17;;;15.43;;
43114;SDS011;28727;50.068;14.452;2022-12-18T11:45:25;38.85;;;15.52;;
43114;SDS011;28727;50.068;14.452;2022-12-18T11:48:09;38.90;;;16.00;;
43114;SDS011;28727;50.068;14.452;2022-12-18T11:50:52;36.85;;;14.73;;
43114;SDS011;28727;50.068;14.452;2022-12-18T11:53:25;46.20;;;17.10;;
43114;SDS011;28727;50.068;14.452;2022-12-18T11:56:15;37.63;;;15.10;;
43114;SDS011;28727;50.068;14.452;2022-12-18T11:59:07;39.95;;;16.52;;
43114;SDS011;28727;50.068;14.452;2022-12-18T12:01:55;38.90;;;15.88;;
43114;SDS011;28727;50.068;14.452;2022-12-18T12:04:41;40.47;;;15.25;;
43114;SDS011;28727;50.068;14.452;2022-12-18T12:07:32;39.30;;;15.38;;
43114;SDS011;28727;50.068;14.452;2022-12-18T12:15:55;42.78;;;16.48;;
43114;SDS011;28727;50.068;14.452;2022-12-18T12:27:36;42.85;;;16.55;;
43114;SDS011;28727;50.068;14.452;2022-12-18T12:33:05;43.33;;;18.67;;
43114;SDS011;28727;50.068;14.452;2022-12-18T12:38:59;44.92;;;18.00;;
43114;SDS011;28727;50.068;14.452;2022-12-18T12:41:36;48.35;;;18.38;;
43114;SDS011;28727;50.068;14.452;2022-12-18T12:44:30;41.92;;;17.35;;
43114;SDS011;28727;50.068;14.452;2022-12-18T12:47:09;45.38;;;17.27;;
43114;SDS011;28727;50.068;14.452;2022-12-18T12:49:48;44.72;;;16.48;;
43114;SDS011;28727;50.068;14.452;2022-12-18T12:55:07;51.03;;;19.85;;
43114;SDS011;28727;50.068;14.452;2022-12-18T12:58:10;40.65;;;16.35;;
43114;SDS011;28727;50.068;14.452;2022-12-18T13:06:47;41.33;;;18.42;;
43114;SDS011;28727;50.068;14.452;2022-12-18T13:10:11;54.40;;;19.15;;
43114;SDS011;28727;50.068;14.452;2022-12-18T13:12:56;46.88;;;18.17;;
43114;SDS011;28727;50.068;14.452;2022-12-18T13:15:45;45.15;;;18.15;;
43114;SDS011;28727;50.068;14.452;2022-12-18T13:18:22;46.13;;;19.58;;
43114;SDS011;28727;50.068;14.452;2022-12-18T13:23:36;44.05;;;18.33;;
43114;SDS011;28727;50.068;14.452;2022-12-18T13:37:35;44.58;;;17.00;;
43114;SDS011;28727;50.068;14.452;2022-12-18T13:40:16;43.75;;;15.35;;
43114;SDS011;28727;50.068;14.452;2022-12-18T13:46:05;41.05;;;14.75;;
43114;SDS011;28727;50.068;14.452;2022-12-18T13:51:31;42.47;;;14.85;;
43114;SDS011;28727;50.068;14.452;2022-12-18T13:54:10;37.90;;;14.68;;
43114;SDS011;28727;50.068;14.452;2022-12-18T13:56:57;32.83;;;12.73;;
43114;SDS011;28727;50.068;14.452;2022-12-18T13:59:38;40.15;;;14.82;;
43114;SDS011;28727;50.068;14.452;2022-12-18T14:02:15;38.03;;;14.05;;
43114;SDS011;28727;50.068;14.452;2022-12-18T14:04:54;37.10;;;13.38;;
43114;SDS011;28727;50.068;14.452;2022-12-18T14:07:28;38.92;;;13.68;;
43114;SDS011;28727;50.068;14.452;2022-12-18T14:13:06;37.13;;;13.13;;
43114;SDS011;28727;50.068;14.452;2022-12-18T14:15:42;37.05;;;13.98;;
43114;SDS011;28727;50.068;14.452;2022-12-18T14:18:22;41.30;;;14.55;;
43114;SDS011;28727;50.068;14.452;2022-12-18T14:20:57;39.17;;;15.32;;
43114;SDS011;28727;50.068;14.452;2022-12-18T14:23:32;37.42;;;15.00;;
43114;SDS011;28727;50.068;14.452;2022-12-18T14:29:17;38.55;;;16.08;;
43114;SDS011;28727;50.068;14.452;2022-12-18T14:34:52;45.25;;;16.20;;
43114;SDS011;28727;50.068;14.452;2022-12-18T14:37:26;40.00;;;15.70;;
43114;SDS011;28727;50.068;14.452;2022-12-18T14:39:59;46.85;;;14.95;;
43114;SDS011;28727;50.068;14.452;2022-12-18T14:42:42;42.33;;;14.90;;
43114;SDS011;28727;50.068;14.452;2022-12-18T14:50:54;40.60;;;15.32;;
43114;SDS011;28727;50.068;14.452;2022-12-18T14:53:35;41.70;;;15.15;;
43114;SDS011;28727;50.068;14.452;2022-12-18T14:56:33;36.95;;;15.15;;
43114;SDS011;28727;50.068;14.452;2022-12-18T14:59:15;45.67;;;17.50;;
43114;SDS011;28727;50.068;14.452;2022-12-18T15:02:08;40.92;;;15.30;;
43114;SDS011;28727;50.068;14.452;2022-12-18T15:05:00;42.78;;;15.90;;
43114;SDS011;28727;50.068;14.452;2022-12-18T15:07:50;32.17;;;12.77;;
43114;SDS011;28727;50.068;14.452;2022-12-18T15:10:24;40.28;;;15.32;;
43114;SDS011;28727;50.068;14.452;2022-12-18T15:23:27;40.78;;;16.13;;
43114;SDS011;28727;50.068;14.452;2022-12-18T15:26:08;46.55;;;17.33;;
43114;SDS011;28727;50.068;14.452;2022-12-18T15:28:45;39.22;;;14.40;;
43114;SDS011;28727;50.068;14.452;2022-12-18T15:31:27;45.65;;;17.02;;
43114;SDS011;28727;50.068;14.452;2022-12-18T15:34:08;43.95;;;17.38;;
43114;SDS011;28727;50.068;14.452;2022-12-18T15:36:45;43.00;;;18.13;;
43114;SDS011;28727;50.068;14.452;2022-12-18T15:39:17;44.80;;;17.17;;
43114;SDS011;28727;50.068;14.452;2022-12-18T15:41:49;50.78;;;18.52;;
43114;SDS011;28727;50.068;14.452;2022-12-18T15:44:40;40.85;;;15.48;;
43114;SDS011;28727;50.068;14.452;2022-12-18T15:47:12;46.88;;;17.75;;
43114;SDS011;28727;50.068;14.452;2022-12-18T15:49:44;42.75;;;15.63;;
43114;SDS011;28727;50.068;14.452;2022-12-18T15:52:15;44.88;;;17.90;;
43114;SDS011;28727;50.068;14.452;2022-12-18T15:54:57;51.05;;;19.25;;
43114;SDS011;28727;50.068;14.452;2022-12-18T15:57:47;50.30;;;18.80;;
43114;SDS011;28727;50.068;14.452;2022-12-18T16:00:19;47.92;;;17.63;;
43114;SDS011;28727;50.068;14.452;2022-12-18T16:02:50;43.30;;;17.02;;
43114;SDS011;28727;50.068;14.452;2022-12-18T16:05:22;52.92;;;19.70;;
43114;SDS011;28727;50.068;14.452;2022-12-18T16:07:55;41.63;;;17.58;;
43114;SDS011;28727;50.068;14.452;2022-12-18T16:10:27;39.67;;;16.48;;
43114;SDS011;28727;50.068;14.452;2022-12-18T16:12:58;38.50;;;16.10;;
43114;SDS011;28727;50.068;14.452;2022-12-18T16:15:30;41.30;;;17.08;;
43114;SDS011;28727;50.068;14.452;2022-12-18T16:18:04;43.47;;;16.08;;
43114;SDS011;28727;50.068;14.452;2022-12-18T16:20:39;38.03;;;14.77;;
43114;SDS011;28727;50.068;14.452;2022-12-18T16:23:11;47.75;;;17.58;;
43114;SDS011;28727;50.068;14.452;2022-12-18T16:25:43;48.22;;;19.17;;
43114;SDS011;28727;50.068;14.452;2022-12-18T16:28:15;43.13;;;16.27;;
43114;SDS011;28727;50.068;14.452;2022-12-18T16:30:46;42.97;;;16.83;;
43114;SDS011;28727;50.068;14.452;2022-12-18T16:33:22;46.80;;;18.65;;
43114;SDS011;28727;50.068;14.452;2022-12-18T16:35:56;43.95;;;17.65;;
43114;SDS011;28727;50.068;14.452;2022-12-18T16:38:28;47.07;;;17.10;;
43114;SDS011;28727;50.068;14.452;2022-12-18T16:40:59;43.67;;;16.88;;
43114;SDS011;28727;50.068;14.452;2022-12-18T16:43:49;42.80;;;16.75;;
43114;SDS011;28727;50.068;14.452;2022-12-18T16:46:25;43.40;;;17.73;;
43114;SDS011;28727;50.068;14.452;2022-12-18T16:49:00;52.90;;;19.08;;
43114;SDS011;28727;50.068;14.452;2022-12-18T16:51:32;45.95;;;18.02;;
43114;SDS011;28727;50.068;14.452;2022-12-18T16:54:04;43.75;;;18.10;;
43114;SDS011;28727;50.068;14.452;2022-12-18T16:56:41;44.25;;;17.98;;
43114;SDS011;28727;50.068;14.452;2022-12-18T16:59:14;49.22;;;17.67;;
43114;SDS011;28727;50.068;14.452;2022-12-18T17:01:46;48.80;;;18.92;;
43114;SDS011;28727;50.068;14.452;2022-12-18T17:04:18;52.25;;;20.10;;
43114;SDS011;28727;50.068;14.452;2022-12-18T17:06:51;44.70;;;19.10;;
43114;SDS011;28727;50.068;14.452;2022-12-18T17:09:24;51.67;;;19.65;;
43114;SDS011;28727;50.068;14.452;2022-12-18T17:11:56;49.78;;;20.05;;
43114;SDS011;28727;50.068;14.452;2022-12-18T17:14:27;56.65;;;20.40;;